createdAt,value
2018-05-04T00:00:21.497Z,15.80
2018-05-04T00:02:48.996Z,15.80
2018-05-04T00:05:16.587Z,15.80
2018-05-04T00:07:44.185Z,15.80
2018-05-04T00:10:11.869Z,15.70
2018-05-04T00:12:39.409Z,15.70
2018-05-04T00:15:07.174Z,15.70
2018-05-04T00:17:34.934Z,15.60
2018-05-04T00:20:02.425Z,15.60
2018-05-04T00:22:30.148Z,15.50
2018-05-04T00:24:57.658Z,15.50
2018-05-04T00:27:25.165Z,15.40
2018-05-04T00:29:52.846Z,15.40
2018-05-04T00:32:20.610Z,15.40
2018-05-04T00:34:48.109Z,15.40
2018-05-04T00:37:15.628Z,15.40
2018-05-04T00:39:43.276Z,15.40
2018-05-04T00:42:10.785Z,15.40
2018-05-04T00:44:38.280Z,15.30
2018-05-04T00:47:06.873Z,15.30
2018-05-04T00:49:34.454Z,15.30
2018-05-04T00:52:01.980Z,15.30
2018-05-04T00:54:29.485Z,15.30
2018-05-04T00:56:57.002Z,15.30
2018-05-04T00:59:24.507Z,15.20
2018-05-04T01:01:52.030Z,15.20
2018-05-04T01:04:19.536Z,15.20
2018-05-04T01:06:47.068Z,15.10
2018-05-04T01:09:14.560Z,15.00
2018-05-04T01:11:42.313Z,15.00
2018-05-04T01:14:09.831Z,14.90
2018-05-04T01:16:37.441Z,14.90
2018-05-04T01:19:04.960Z,14.90
2018-05-04T01:21:32.453Z,14.90
2018-05-04T01:23:59.969Z,14.80
2018-05-04T01:26:27.714Z,14.80
2018-05-04T01:28:55.477Z,14.80
2018-05-04T01:31:22.969Z,14.70
2018-05-04T01:33:50.701Z,14.70
2018-05-04T01:36:18.202Z,14.70
2018-05-04T01:38:45.724Z,14.60
2018-05-04T01:41:13.233Z,14.60
2018-05-04T01:43:40.743Z,14.60
2018-05-04T01:46:08.288Z,14.60
2018-05-04T01:48:35.993Z,14.60
2018-05-04T01:51:03.506Z,14.60
2018-05-04T01:53:31.273Z,14.50
2018-05-04T01:55:58.772Z,14.50
2018-05-04T01:58:26.330Z,14.50
2018-05-04T02:00:53.951Z,14.50
2018-05-04T02:03:21.472Z,14.40
2018-05-04T02:05:48.968Z,14.40
2018-05-04T02:08:16.622Z,14.40
2018-05-04T02:10:44.130Z,14.40
2018-05-04T02:13:11.648Z,14.40
2018-05-04T02:15:39.227Z,14.40
2018-05-04T02:18:06.838Z,14.40
2018-05-04T02:20:35.148Z,14.30
2018-05-04T02:23:02.913Z,14.30
2018-05-04T02:25:30.669Z,14.30
2018-05-04T02:27:58.434Z,14.20
2018-05-04T02:30:25.950Z,14.30
2018-05-04T02:32:53.471Z,14.20
2018-05-04T02:35:21.029Z,14.20
2018-05-04T02:37:48.525Z,14.10
2018-05-04T02:40:16.044Z,14.10
2018-05-04T02:42:43.785Z,14.00
2018-05-04T02:45:11.510Z,14.00
2018-05-04T02:47:39.242Z,14.00
2018-05-04T02:50:06.782Z,14.00
2018-05-04T02:52:34.282Z,14.00
2018-05-04T02:55:01.800Z,14.00
2018-05-04T02:57:30.072Z,13.90
2018-05-04T02:59:57.753Z,14.00
2018-05-04T03:02:25.294Z,14.00
2018-05-04T03:04:52.822Z,14.00
2018-05-04T03:07:21.096Z,14.00
2018-05-04T03:09:48.604Z,13.90
2018-05-04T03:12:16.113Z,13.90
2018-05-04T03:14:44.424Z,13.90
2018-05-04T03:17:13.349Z,13.90
2018-05-04T03:19:40.857Z,13.90
2018-05-04T03:22:08.348Z,13.80
2018-05-04T03:24:36.013Z,13.70
2018-05-04T03:27:03.516Z,13.70
2018-05-04T03:29:31.021Z,13.70
2018-05-04T03:31:58.761Z,13.60
2018-05-04T03:34:26.448Z,13.60
2018-05-04T03:36:53.962Z,13.50
2018-05-04T03:39:21.673Z,13.50
2018-05-04T03:41:49.301Z,13.50
2018-05-04T03:44:16.874Z,13.40
2018-05-04T03:46:44.385Z,13.30
2018-05-04T03:49:12.182Z,13.20
2018-05-04T03:51:40.338Z,13.20
2018-05-04T03:54:08.632Z,13.00
2018-05-04T03:56:36.386Z,13.00
2018-05-04T03:59:15.668Z,12.90
2018-05-04T04:02:09.108Z,12.90
2018-05-04T04:04:36.958Z,12.90
2018-05-04T04:07:04.623Z,12.80
2018-05-04T04:09:32.117Z,12.80
2018-05-04T04:11:59.845Z,12.80
2018-05-04T04:14:27.836Z,12.80
2018-05-04T04:16:55.373Z,12.70
2018-05-04T04:19:23.135Z,12.70
2018-05-04T04:21:50.902Z,12.70
2018-05-04T04:24:18.408Z,12.70
2018-05-04T04:26:46.068Z,12.70
2018-05-04T04:29:13.573Z,12.70
2018-05-04T04:31:41.092Z,12.80
2018-05-04T04:34:08.593Z,12.80
2018-05-04T04:36:36.249Z,12.90
2018-05-04T04:39:03.769Z,12.80
2018-05-04T04:41:31.269Z,12.90
2018-05-04T04:43:58.863Z,12.80
2018-05-04T04:46:26.399Z,12.90
2018-05-04T04:48:53.917Z,12.90
2018-05-04T04:51:22.189Z,13.00
2018-05-04T04:53:49.705Z,12.90
2018-05-04T04:56:17.444Z,13.00
2018-05-04T04:58:45.217Z,13.00
2018-05-04T05:01:12.749Z,12.90
2018-05-04T05:03:41.352Z,12.90
2018-05-04T05:06:09.129Z,12.90
2018-05-04T05:08:36.889Z,12.80
2018-05-04T05:11:04.389Z,12.80
2018-05-04T05:13:32.172Z,12.80
2018-05-04T05:15:59.641Z,12.80
2018-05-04T05:18:28.049Z,12.90
2018-05-04T05:20:55.622Z,12.80
2018-05-04T05:23:23.162Z,12.90
2018-05-04T05:25:50.912Z,13.00
2018-05-04T05:28:18.415Z,13.10
2018-05-04T05:30:46.083Z,13.20
2018-05-04T05:33:13.590Z,13.20
2018-05-04T05:35:41.134Z,13.30
2018-05-04T05:38:08.732Z,13.30
2018-05-04T05:40:36.249Z,13.40
2018-05-04T05:43:03.847Z,13.40
2018-05-04T05:45:31.364Z,13.50
2018-05-04T05:47:58.865Z,13.50
2018-05-04T05:50:26.384Z,13.50
2018-05-04T05:52:53.887Z,13.60
2018-05-04T05:55:21.433Z,13.70
2018-05-04T05:57:49.015Z,13.70
2018-05-04T06:00:16.516Z,13.60
2018-05-04T06:02:44.110Z,13.70
2018-05-04T06:05:11.616Z,13.70
2018-05-04T06:07:39.900Z,13.70
2018-05-04T06:10:09.180Z,13.80
2018-05-04T06:12:36.709Z,13.80
2018-05-04T06:15:04.232Z,13.90
2018-05-04T06:17:31.815Z,14.00
2018-05-04T06:19:59.349Z,14.00
2018-05-04T06:22:27.759Z,14.10
2018-05-04T06:24:57.024Z,14.10
2018-05-04T06:27:25.335Z,14.20
2018-05-04T06:29:52.836Z,14.20
2018-05-04T06:32:20.621Z,14.30
2018-05-04T06:34:48.890Z,14.40
2018-05-04T06:37:16.685Z,14.40
2018-05-04T06:39:44.262Z,14.40
2018-05-04T06:42:11.713Z,14.50
2018-05-04T06:44:39.235Z,14.50
2018-05-04T06:47:06.733Z,14.50
2018-05-04T06:49:34.249Z,14.60
2018-05-04T06:52:02.049Z,14.60
2018-05-04T06:54:29.592Z,14.60
2018-05-04T06:56:57.200Z,14.60
2018-05-04T06:59:24.762Z,14.70
2018-05-04T07:01:52.233Z,14.60
2018-05-04T07:04:19.749Z,14.70
2018-05-04T07:06:47.337Z,14.80
2018-05-04T07:09:14.861Z,14.80
2018-05-04T07:11:42.362Z,14.90
2018-05-04T07:14:09.889Z,15.00
2018-05-04T07:16:37.384Z,15.00
2018-05-04T07:19:05.652Z,15.10
2018-05-04T07:21:33.148Z,15.20
2018-05-04T07:24:00.897Z,15.30
2018-05-04T07:26:29.161Z,15.30
2018-05-04T07:28:56.890Z,15.30
2018-05-04T07:31:24.408Z,15.20
2018-05-04T07:33:52.176Z,15.20
2018-05-04T07:36:19.967Z,15.30
2018-05-04T07:38:47.461Z,15.30
2018-05-04T07:41:14.977Z,15.40
2018-05-04T07:43:42.638Z,15.40
2018-05-04T07:46:10.154Z,15.50
2018-05-04T07:48:38.417Z,15.50
2018-05-04T07:51:06.103Z,15.40
2018-05-04T07:53:33.600Z,15.50
2018-05-04T07:56:01.130Z,15.50
2018-05-04T07:58:28.629Z,15.60
2018-05-04T08:00:56.310Z,15.60
2018-05-04T08:03:23.804Z,15.70
2018-05-04T08:05:51.503Z,15.70
2018-05-04T08:08:18.993Z,15.70
2018-05-04T08:10:46.544Z,15.80
2018-05-04T08:13:14.253Z,15.80
2018-05-04T08:15:41.776Z,15.90
2018-05-04T08:18:09.270Z,15.90
2018-05-04T08:20:36.870Z,16.00
2018-05-04T08:23:04.396Z,16.00
2018-05-04T08:25:32.149Z,15.90
2018-05-04T08:27:59.909Z,15.90
2018-05-04T08:30:28.924Z,16.00
2018-05-04T08:32:56.433Z,16.00
2018-05-04T08:35:24.006Z,16.10
2018-05-04T08:37:51.509Z,16.20
2018-05-04T08:40:19.049Z,16.20
2018-05-04T08:42:46.581Z,16.30
2018-05-04T08:45:14.853Z,16.40
2018-05-04T08:47:42.567Z,16.40
2018-05-04T08:50:10.066Z,16.40
2018-05-04T08:52:37.582Z,16.50
2018-05-04T08:55:05.086Z,16.50
2018-05-04T08:57:33.365Z,16.70
2018-05-04T09:00:01.803Z,16.60
2018-05-04T09:02:29.319Z,16.70
2018-05-04T09:04:56.928Z,16.80
2018-05-04T09:07:24.453Z,16.80
2018-05-04T09:09:51.976Z,16.90
2018-05-04T09:12:20.246Z,17.00
2018-05-04T09:14:48.093Z,16.90
2018-05-04T09:17:15.809Z,17.00
2018-05-04T09:19:43.347Z,17.10
2018-05-04T09:22:11.637Z,17.10
2018-05-04T09:24:39.160Z,17.10
2018-05-04T09:27:06.661Z,17.20
2018-05-04T09:29:34.311Z,17.20
2018-05-04T09:32:01.989Z,17.30
2018-05-04T09:34:30.346Z,17.30
2018-05-04T09:36:57.849Z,17.40
2018-05-04T09:39:25.369Z,17.50
2018-05-04T09:41:53.131Z,17.60
2018-05-04T09:44:20.897Z,17.60
2018-05-04T09:46:48.677Z,17.70
2018-05-04T09:49:16.339Z,17.80
2018-05-04T09:51:43.858Z,17.80
2018-05-04T09:54:11.640Z,17.90
2018-05-04T09:56:39.153Z,17.90
2018-05-04T09:59:06.865Z,17.90
2018-05-04T10:01:34.633Z,18.00
2018-05-04T10:04:02.397Z,18.10
2018-05-04T10:06:29.923Z,18.10
2018-05-04T10:08:57.613Z,18.20
2018-05-04T10:11:25.146Z,18.30
2018-05-04T10:13:53.459Z,18.40
2018-05-04T10:16:20.981Z,18.30
2018-05-04T10:18:49.349Z,18.50
2018-05-04T10:21:17.662Z,18.50
2018-05-04T10:23:45.165Z,18.50
2018-05-04T10:26:12.709Z,18.60
2018-05-04T10:28:40.351Z,18.60
2018-05-04T10:31:08.105Z,18.60
2018-05-04T10:33:35.880Z,18.70
2018-05-04T10:36:03.494Z,18.70
2018-05-04T10:38:31.061Z,18.70
2018-05-04T10:40:58.670Z,18.70
2018-05-04T10:43:26.313Z,18.70
2018-05-04T10:45:53.818Z,18.70
2018-05-04T10:48:21.461Z,18.70
2018-05-04T10:50:49.512Z,18.80
2018-05-04T10:53:17.025Z,18.80
2018-05-04T10:55:44.529Z,18.90
2018-05-04T10:58:12.212Z,18.90
2018-05-04T11:00:39.713Z,19.00
2018-05-04T11:03:07.248Z,19.10
2018-05-04T11:05:34.872Z,19.20
2018-05-04T11:08:02.393Z,19.20
2018-05-04T11:10:30.178Z,19.20
2018-05-04T11:12:57.873Z,19.20
2018-05-04T11:15:25.397Z,19.30
2018-05-04T11:17:53.161Z,19.30
2018-05-04T11:20:20.677Z,19.30
2018-05-04T11:22:48.177Z,19.40
2018-05-04T11:25:15.702Z,19.40
2018-05-04T11:27:43.288Z,19.50
2018-05-04T11:30:10.802Z,19.50
2018-05-04T11:32:38.512Z,19.60
2018-05-04T11:35:06.030Z,19.60
2018-05-04T11:37:33.571Z,19.70
2018-05-04T11:40:01.084Z,19.70
2018-05-04T11:42:28.699Z,19.80
2018-05-04T11:44:56.233Z,19.80
2018-05-04T11:47:23.769Z,19.80
2018-05-04T11:49:51.292Z,19.90
2018-05-04T11:52:18.809Z,20.00
2018-05-04T11:54:46.308Z,20.00
2018-05-04T11:57:14.002Z,20.00
2018-05-04T11:59:41.575Z,20.10
2018-05-04T12:02:09.221Z,20.20
2018-05-04T12:04:36.801Z,20.20
2018-05-04T12:07:04.379Z,20.30
2018-05-04T12:09:31.892Z,20.30
2018-05-04T12:11:59.414Z,20.30
2018-05-04T12:14:26.933Z,20.40
2018-05-04T12:16:54.454Z,20.40
2018-05-04T12:19:22.034Z,20.40
2018-05-04T12:21:49.627Z,20.40
2018-05-04T12:24:17.254Z,20.50
2018-05-04T12:26:44.828Z,20.50
2018-05-04T12:29:12.473Z,20.60
2018-05-04T12:31:39.997Z,20.60
2018-05-04T12:34:07.704Z,20.60
2018-05-04T12:36:35.221Z,20.60
2018-05-04T12:39:02.746Z,20.60
2018-05-04T12:41:30.365Z,20.70
2018-05-04T12:43:57.884Z,20.70
2018-05-04T12:46:26.565Z,20.80
2018-05-04T12:48:54.273Z,20.80
2018-05-04T12:51:22.040Z,20.80
2018-05-04T12:53:49.825Z,20.90
2018-05-04T12:56:17.328Z,20.90
2018-05-04T12:58:44.844Z,20.90
2018-05-04T13:01:12.346Z,20.90
2018-05-04T13:03:39.946Z,20.90
2018-05-04T13:06:07.530Z,20.90
2018-05-04T13:08:35.093Z,21.00
2018-05-04T13:11:02.622Z,21.00
2018-05-04T13:13:30.145Z,21.00
2018-05-04T13:15:58.417Z,21.00
2018-05-04T13:18:25.962Z,21.00
2018-05-04T13:20:53.677Z,21.10
2018-05-04T13:23:21.386Z,21.10
2018-05-04T13:25:48.892Z,21.20
2018-05-04T13:28:16.393Z,21.10
2018-05-04T13:30:43.921Z,21.20
2018-05-04T13:33:11.419Z,21.20
2018-05-04T13:35:38.952Z,21.20
2018-05-04T13:38:06.451Z,21.20
2018-05-04T13:40:34.180Z,21.30
2018-05-04T13:43:01.678Z,21.30
2018-05-04T13:45:29.520Z,21.30
2018-05-04T13:47:56.921Z,21.40
2018-05-04T13:50:24.435Z,21.40
2018-05-04T13:52:52.147Z,21.50
2018-05-04T13:55:19.719Z,21.50
2018-05-04T13:57:47.241Z,21.60
2018-05-04T14:00:14.823Z,21.70
2018-05-04T14:02:42.340Z,22.00
2018-05-04T14:05:09.862Z,22.40
2018-05-04T14:07:37.417Z,22.50
2018-05-04T14:10:04.959Z,22.50
2018-05-04T14:12:32.461Z,22.50
2018-05-04T14:14:59.977Z,22.50
2018-05-04T14:17:27.635Z,22.50
2018-05-04T14:19:55.131Z,22.50
2018-05-04T14:22:22.651Z,22.70
2018-05-04T14:24:50.154Z,22.80
2018-05-04T14:27:17.752Z,23.10
2018-05-04T14:29:45.200Z,24.00
2018-05-04T14:32:13.107Z,24.70
2018-05-04T14:34:40.611Z,24.80
2018-05-04T14:37:08.146Z,24.50
2018-05-04T14:39:35.664Z,24.10
2018-05-04T14:42:03.187Z,23.80
2018-05-04T14:44:30.705Z,23.60
2018-05-04T14:46:58.229Z,23.60
2018-05-04T14:49:25.737Z,23.50
2018-05-04T14:51:53.253Z,23.40
2018-05-04T14:54:21.025Z,23.30
2018-05-04T14:56:48.721Z,23.30
2018-05-04T14:59:17.184Z,23.20
2018-05-04T15:01:44.692Z,23.00
2018-05-04T15:04:12.995Z,22.90
2018-05-04T15:06:40.521Z,22.80
2018-05-04T15:09:08.053Z,22.90
2018-05-04T15:11:35.626Z,22.90
2018-05-04T15:14:03.214Z,22.90
2018-05-04T15:16:31.534Z,22.80
2018-05-04T15:18:59.285Z,22.80
2018-05-04T15:21:27.375Z,22.80
2018-05-04T15:23:54.912Z,22.70
2018-05-04T15:26:22.601Z,22.60
2018-05-04T15:28:50.155Z,22.50
2018-05-04T15:31:17.674Z,22.60
2018-05-04T15:33:45.223Z,22.50
2018-05-04T15:36:12.750Z,22.40
2018-05-04T15:38:40.285Z,22.40
2018-05-04T15:41:07.820Z,22.30
2018-05-04T15:43:35.358Z,22.20
2018-05-04T15:46:02.895Z,22.20
2018-05-04T15:48:36.087Z,22.10
2018-05-04T15:51:09.258Z,22.00
2018-05-04T15:53:36.783Z,22.00
2018-05-04T15:56:04.365Z,21.90
2018-05-04T15:58:31.898Z,21.90
2018-05-04T16:00:59.581Z,21.90
2018-05-04T16:03:27.098Z,21.80
2018-05-04T16:05:55.387Z,21.70
2018-05-04T16:08:22.907Z,21.70
2018-05-04T16:10:50.456Z,21.60
2018-05-04T16:13:17.962Z,21.70
2018-05-04T16:15:45.506Z,21.70
2018-05-04T16:18:13.036Z,22.10
2018-05-04T16:20:40.561Z,22.20
2018-05-04T16:23:08.106Z,22.30
2018-05-04T16:25:35.643Z,22.30
2018-05-04T16:28:03.146Z,22.40
2018-05-04T16:30:30.898Z,22.40
2018-05-04T16:32:58.412Z,22.30
2018-05-04T16:35:26.636Z,22.10
2018-05-04T16:37:54.160Z,22.00
2018-05-04T16:40:22.335Z,21.80
2018-05-04T16:42:50.610Z,21.50
2018-05-04T16:45:18.149Z,21.50
2018-05-04T16:47:51.341Z,21.40
2018-05-04T16:50:19.772Z,21.30
2018-05-04T16:52:47.285Z,21.30
2018-05-04T16:55:15.573Z,21.30
2018-05-04T16:57:43.104Z,21.30
2018-05-04T17:00:10.613Z,21.30
2018-05-04T17:02:38.146Z,21.20
2018-05-04T17:05:05.730Z,21.10
2018-05-04T17:07:33.261Z,21.10
2018-05-04T17:10:01.557Z,21.00
2018-05-04T17:12:29.087Z,21.00
2018-05-04T17:14:56.611Z,20.90
2018-05-04T17:17:24.151Z,20.90
2018-05-04T17:19:52.609Z,20.80
2018-05-04T17:22:20.133Z,20.80
2018-05-04T17:24:47.651Z,20.70
2018-05-04T17:27:15.203Z,20.60
2018-05-04T17:29:42.718Z,20.60
2018-05-04T17:32:11.030Z,20.50
2018-05-04T17:34:38.538Z,20.50
2018-05-04T17:37:06.057Z,20.40
2018-05-04T17:39:33.625Z,20.40
2018-05-04T17:42:01.126Z,20.20
2018-05-04T17:44:28.735Z,20.20
2018-05-04T17:46:56.240Z,20.10
2018-05-04T17:49:23.773Z,20.10
2018-05-04T17:51:51.288Z,20.00
2018-05-04T17:54:18.861Z,20.00
2018-05-04T17:56:46.371Z,19.90
2018-05-04T17:59:13.897Z,19.80
2018-05-04T18:01:41.406Z,19.80
2018-05-04T18:04:08.945Z,19.70
2018-05-04T18:06:36.463Z,19.70
2018-05-04T18:09:03.995Z,19.70
2018-05-04T18:11:31.586Z,19.60
2018-05-04T18:13:59.136Z,19.60
2018-05-04T18:16:26.666Z,19.50
2018-05-04T18:18:54.955Z,19.40
2018-05-04T18:21:22.672Z,19.40
2018-05-04T18:23:50.188Z,19.30
2018-05-04T18:26:17.756Z,19.30
2018-05-04T18:28:45.271Z,19.20
2018-05-04T18:31:12.797Z,19.20
2018-05-04T18:33:41.031Z,19.10
2018-05-04T18:36:08.573Z,19.10
2018-05-04T18:38:36.097Z,19.00
2018-05-04T18:41:03.693Z,18.90
2018-05-04T18:43:31.988Z,18.80
2018-05-04T18:45:59.545Z,18.80
2018-05-04T18:48:27.060Z,18.80
2018-05-04T18:50:54.586Z,18.80
2018-05-04T18:53:22.085Z,18.70
2018-05-04T18:55:50.832Z,18.60
2018-05-04T18:58:18.345Z,18.50
2018-05-04T19:00:46.631Z,18.40
2018-05-04T19:03:19.911Z,18.40
2018-05-04T19:05:47.442Z,18.40
2018-05-04T19:08:14.987Z,18.30
2018-05-04T19:10:42.498Z,18.30
2018-05-04T19:13:10.025Z,18.20
2018-05-04T19:15:37.880Z,18.20
2018-05-04T19:18:05.619Z,18.10
2018-05-04T19:20:33.127Z,18.00
2018-05-04T19:23:01.437Z,18.00
2018-05-04T19:25:28.953Z,17.90
2018-05-04T19:27:56.486Z,17.90
2018-05-04T19:30:24.119Z,17.80
2018-05-04T19:32:51.654Z,17.80
2018-05-04T19:35:19.930Z,17.70
2018-05-04T19:37:47.713Z,17.70
2018-05-04T19:40:15.699Z,17.60
2018-05-04T19:42:43.250Z,17.50
2018-05-04T19:45:11.021Z,17.50
2018-05-04T19:47:38.562Z,17.40
2018-05-04T19:50:06.077Z,17.40
2018-05-04T19:52:33.610Z,17.40
2018-05-04T19:55:01.161Z,17.30
2018-05-04T19:57:28.911Z,17.30
2018-05-04T19:59:56.676Z,17.30
2018-05-04T20:02:24.456Z,17.20
2018-05-04T20:04:52.000Z,17.20
2018-05-04T20:07:19.666Z,17.20
2018-05-04T20:09:47.201Z,17.20
2018-05-04T20:12:15.485Z,17.10
2018-05-04T20:14:43.008Z,17.10
2018-05-04T20:17:10.535Z,17.10
2018-05-04T20:19:38.060Z,17.00
2018-05-04T20:22:05.576Z,17.00
2018-05-04T20:24:33.126Z,17.00
2018-05-04T20:27:00.651Z,17.00
2018-05-04T20:29:28.307Z,17.00
2018-05-04T20:31:56.150Z,17.00
2018-05-04T20:34:23.683Z,16.90
2018-05-04T20:36:51.970Z,16.90
2018-05-04T20:39:19.532Z,16.90
2018-05-04T20:41:47.062Z,16.80
2018-05-04T20:44:14.638Z,16.80
2018-05-04T20:46:42.168Z,16.80
2018-05-04T20:49:09.769Z,16.70
2018-05-04T20:51:37.324Z,16.70
2018-05-04T20:54:04.844Z,16.70
2018-05-04T20:56:32.377Z,16.60
2018-05-04T20:58:59.966Z,16.60
2018-05-04T21:01:27.462Z,16.60
2018-05-04T21:03:55.165Z,16.60
2018-05-04T21:06:22.735Z,16.50
2018-05-04T21:08:50.438Z,16.50
2018-05-04T21:11:17.949Z,16.50
2018-05-04T21:13:45.664Z,16.40
2018-05-04T21:16:13.170Z,16.30
2018-05-04T21:18:40.702Z,16.30
2018-05-04T21:21:08.206Z,16.20
2018-05-04T21:23:35.771Z,16.20
2018-05-04T21:26:03.521Z,16.10
2018-05-04T21:28:31.068Z,16.10
2018-05-04T21:30:58.729Z,16.10
2018-05-04T21:33:26.253Z,16.00
2018-05-04T21:35:54.566Z,15.90
2018-05-04T21:38:22.109Z,15.90
2018-05-04T21:40:49.619Z,15.90
2018-05-04T21:43:17.238Z,15.90
2018-05-04T21:45:44.945Z,15.80
2018-05-04T21:48:12.477Z,15.80
2018-05-04T21:50:39.986Z,15.80
2018-05-04T21:53:08.275Z,15.80
2018-05-04T21:55:35.785Z,15.90
2018-05-04T21:58:03.516Z,15.80
2018-05-04T22:00:31.071Z,15.80
2018-05-04T22:02:58.573Z,15.80
2018-05-04T22:05:26.182Z,15.70
2018-05-04T22:07:53.686Z,15.70
2018-05-04T22:10:21.209Z,15.70
2018-05-04T22:12:48.734Z,15.60
2018-05-04T22:15:17.168Z,15.60
2018-05-04T22:17:44.671Z,15.60
2018-05-04T22:20:12.193Z,15.60
2018-05-04T22:22:39.695Z,15.60
2018-05-04T22:25:07.989Z,15.60
2018-05-04T22:27:35.491Z,15.60
2018-05-04T22:30:03.021Z,15.60
2018-05-04T22:32:30.516Z,15.50
2018-05-04T22:34:58.037Z,15.60
2018-05-04T22:37:25.532Z,15.60
2018-05-04T22:39:53.041Z,15.60
2018-05-04T22:42:20.836Z,15.60
2018-05-04T22:44:48.564Z,15.60
2018-05-04T22:47:16.329Z,15.60
2018-05-04T22:49:43.949Z,15.60
2018-05-04T22:52:11.551Z,15.50
2018-05-04T22:54:39.078Z,15.50
2018-05-04T22:57:07.689Z,15.50
2018-05-04T22:59:35.189Z,15.50
2018-05-04T23:02:02.698Z,15.50
2018-05-04T23:04:30.964Z,15.50
2018-05-04T23:06:58.473Z,15.50
2018-05-04T23:09:26.204Z,15.50
2018-05-04T23:11:53.730Z,15.50
2018-05-04T23:14:21.424Z,15.50
2018-05-04T23:16:49.201Z,15.50
2018-05-04T23:19:16.702Z,15.40
2018-05-04T23:21:44.222Z,15.40
2018-05-04T23:24:11.790Z,15.40
2018-05-04T23:26:39.328Z,15.40
2018-05-04T23:29:07.093Z,15.40
2018-05-04T23:31:34.857Z,15.40
2018-05-04T23:34:02.363Z,15.40
2018-05-04T23:36:29.941Z,15.40
2018-05-04T23:38:57.534Z,15.30
2018-05-04T23:41:25.237Z,15.30
2018-05-04T23:43:52.772Z,15.30
2018-05-04T23:46:21.081Z,15.30
2018-05-04T23:48:48.593Z,15.30
2018-05-04T23:51:16.470Z,15.20
2018-05-04T23:53:43.993Z,15.20
2018-05-04T23:56:11.504Z,15.30
2018-05-04T23:58:39.018Z,15.30
